IVAO ES Tour IFR-A 2013 Etapa 6

IVAO ES Tour IFR-A 2013 Etapa 6

Málaga ( LEMG ) – Zaragoza ( LEZG )

Datos generales del vuelo
 Fecha 23-11-2013  Avión  B737-800 winglets
 Ruta VIBAS UM985 VLC UN733 CATON MANDY R29 CMA  Nivel de vuelo FL360
 Origen LEMG  Destino LEZG
 Velocidad M0.792  Distancia 450Nm
 Distancia real 412Nm ETE 01:20
 ETA 00:05Z +1  FOB 03:00
 Hora salida 22:45Z Hora llegada 00:05Z
 Pax 164 TOW 67488Kg
 MTOW  78471Kg Fuel 7887Kg
 Fuel utilizado 5384Kg ZFW 59659Kg
Peso carga 6875Kg Peso pasaje 10988Kg
V1 131Knots Vr 141Knots
 V2 150Knots  Vref 147Knots

 

Datos LEMG

Metar: LEMG 222200Z 27010KT 9999 FEW050 13/08 Q1010 NOSIG
Salida: VIBAS1U

Datos LEZG

Metar: LEZG 222330Z 28012KT 9999 FEW045 SCT075 05/M00 Q1012
Llegada: CMA1C
App: ILS RWY30r transición ZZA

 

 

 

Deja una respuesta